Time;durP1;ratioP1;P1;durP2;ratioP2;P2;SDS_P1;SDS_P2;PMS_P1;PMS_P2;Temp;Humidity;BMP_temperature;BMP_pressure;BME280_temperature;BME280_humidity;BME280_pressure;Samples;Min_cycle;Max_cycle;Signal;HPM_P1;HPM_P2
2021/04/12 00:00:20;;;;;;;0.50;0.40;;;10.70;99.90;;;;;;5043133;28;20074;-77
2021/04/12 00:02:52;;;;;;;1.02;0.32;;;10.80;99.90;;;;;;5020513;28;20614;-78
2021/04/12 00:05:59;;;;;;;0.30;0.30;;;10.80;99.90;;;;;;5051133;28;20154;-78
2021/04/12 00:08:43;;;;;;;1.20;0.40;;;10.60;99.90;;;;;;5043541;28;20070;-77
2021/04/12 00:11:29;;;;;;;0.40;0.30;;;10.80;99.90;;;;;;5051000;28;20093;-78
2021/04/12 00:14:03;;;;;;;0.47;0.30;;;10.90;99.90;;;;;;5042672;28;20073;-77
2021/04/12 00:16:31;;;;;;;0.50;0.27;;;11.00;99.90;;;;;;5054472;28;20535;-77
2021/04/12 00:19:28;;;;;;;0.50;0.40;;;10.90;99.90;;;;;;5050322;28;20811;-78
2021/04/12 00:22:02;;;;;;;0.30;0.20;;;10.80;99.90;;;;;;5042227;28;20123;-78
2021/04/12 00:24:33;;;;;;;0.55;0.47;;;10.80;99.90;;;;;;5036532;28;20522;-77
2021/04/12 00:27:05;;;;;;;0.70;0.50;;;10.70;99.90;;;;;;5039944;28;20527;-78
2021/04/12 00:29:48;;;;;;;0.60;0.57;;;10.90;99.90;;;;;;5046761;28;20137;-78
2021/04/12 00:32:17;;;;;;;0.40;0.40;;;11.10;99.90;;;;;;5037395;28;20132;-77
2021/04/12 00:35:06;;;;;;;0.80;0.45;;;11.10;99.90;;;;;;5035895;28;20086;-77
2021/04/12 00:37:50;;;;;;;0.30;0.30;;;11.00;99.90;;;;;;5039041;28;20078;-75
2021/04/12 00:40:56;;;;;;;1.25;0.50;;;11.00;99.90;;;;;;5047348;28;20110;-75
2021/04/12 00:43:48;;;;;;;1.48;0.40;;;11.10;99.90;;;;;;5043743;28;20540;-74
2021/04/12 00:46:44;;;;;;;1.05;0.50;;;10.90;99.90;;;;;;5052018;28;20069;-76
2021/04/12 00:49:32;;;;;;;0.30;0.30;;;10.90;99.90;;;;;;5031085;28;20088;-75
2021/04/12 00:52:30;;;;;;;0.70;0.50;;;10.70;99.90;;;;;;5032945;28;20209;-76
2021/04/12 00:55:15;;;;;;;1.15;0.77;;;10.80;99.90;;;;;;5051770;28;20090;-76
2021/04/12 00:57:59;;;;;;;0.52;0.40;;;10.70;99.90;;;;;;5038422;28;20066;-77
2021/04/12 01:00:31;;;;;;;0.52;0.50;;;10.60;99.90;;;;;;5033961;28;20100;-76
2021/04/12 01:03:08;;;;;;;0.70;0.47;;;10.60;99.90;;;;;;5035046;28;20094;-76
2021/04/12 01:06:03;;;;;;;2.60;0.77;;;10.70;99.90;;;;;;5035636;28;20077;-77
2021/04/12 01:08:38;;;;;;;1.08;0.93;;;10.80;99.90;;;;;;5021690;28;20076;-78
2021/04/12 01:11:03;;;;;;;0.55;0.55;;;10.70;99.90;;;;;;5033306;28;20536;-76
2021/04/12 01:13:47;;;;;;;0.85;0.60;;;10.60;99.90;;;;;;5033188;28;20089;-76
2021/04/12 01:16:37;;;;;;;0.50;0.50;;;10.40;99.90;;;;;;5034658;28;20109;-77
2021/04/12 01:19:47;;;;;;;0.50;0.50;;;10.30;99.90;;;;;;5033053;28;20081;-76
2021/04/12 01:22:48;;;;;;;1.65;0.70;;;10.10;99.90;;;;;;5040317;28;20101;-77
2021/04/12 01:26:09;;;;;;;0.82;0.68;;;10.00;99.90;;;;;;5038836;28;20566;-77
2021/04/12 01:29:08;;;;;;;0.98;0.60;;;9.70;99.90;;;;;;5033224;28;20132;-77
2021/04/12 01:32:12;;;;;;;0.95;0.75;;;9.40;99.90;;;;;;5040005;28;20155;-76
2021/04/12 01:35:05;;;;;;;2.67;1.77;;;9.20;99.90;;;;;;5048174;28;20645;-76
2021/04/12 01:37:57;;;;;;;0.88;0.50;;;9.20;99.90;;;;;;5036317;28;20071;-76
2021/04/12 01:40:52;;;;;;;1.00;0.50;;;9.20;99.90;;;;;;5034737;28;20081;-76
2021/04/12 01:43:58;;;;;;;0.70;0.70;;;8.90;99.90;;;;;;5041618;28;20077;-76
2021/04/12 01:46:34;;;;;;;0.60;0.60;;;8.90;99.90;;;;;;5036772;28;20110;-76
2021/04/12 01:49:27;;;;;;;0.85;0.70;;;8.90;99.90;;;;;;5048787;28;20548;-77
2021/04/12 01:52:01;;;;;;;1.67;0.80;;;8.80;99.90;;;;;;5050797;28;20513;-76
2021/04/12 01:55:01;;;;;;;1.10;0.70;;;9.00;99.90;;;;;;5033988;28;20147;-75
2021/04/12 01:57:48;;;;;;;0.85;0.80;;;9.10;99.90;;;;;;5017949;28;20077;-76
2021/04/12 02:00:14;;;;;;;1.10;0.85;;;9.10;99.90;;;;;;5032618;28;20597;-76
2021/04/12 02:02:54;;;;;;;1.63;1.10;;;9.20;99.90;;;;;;5018778;28;20097;-76
2021/04/12 02:05:29;;;;;;;0.95;0.75;;;9.20;99.90;;;;;;5034887;28;20077;-76
2021/04/12 02:08:18;;;;;;;1.10;0.80;;;9.20;99.90;;;;;;5043402;28;20076;-77
2021/04/12 02:11:07;;;;;;;1.17;0.90;;;9.20;99.90;;;;;;5031446;28;20078;-77
2021/04/12 02:13:38;;;;;;;1.38;1.05;;;9.20;99.90;;;;;;5035970;28;20181;-76
2021/04/12 02:16:29;;;;;;;1.20;1.10;;;9.40;99.90;;;;;;5038333;28;20089;-75
2021/04/12 02:19:17;;;;;;;1.10;1.00;;;9.60;99.90;;;;;;5033096;28;20074;-76
2021/04/12 02:22:08;;;;;;;1.10;1.00;;;9.70;99.90;;;;;;5030737;28;20120;-76
2021/04/12 02:24:47;;;;;;;1.10;1.00;;;9.80;99.90;;;;;;5030179;28;20439;-76
2021/04/12 02:27:20;;;;;;;1.23;1.13;;;9.90;99.90;;;;;;5038965;28;20088;-76
2021/04/12 02:30:18;;;;;;;2.00;1.33;;;9.90;99.90;;;;;;5027259;28;20081;-76
2021/04/12 02:33:09;;;;;;;1.17;1.08;;;9.80;99.90;;;;;;5032240;28;21073;-76
2021/04/12 02:35:58;;;;;;;1.60;1.30;;;9.80;99.90;;;;;;5031353;28;20117;-75
2021/04/12 02:38:46;;;;;;;1.40;1.20;;;9.80;99.90;;;;;;5031042;28;20074;-76
2021/04/12 02:41:34;;;;;;;1.38;1.10;;;10.00;99.90;;;;;;5034187;28;20135;-76
2021/04/12 02:44:38;;;;;;;1.25;1.13;;;10.10;99.90;;;;;;5039720;28;20105;-77
2021/04/12 02:47:31;;;;;;;2.72;1.33;;;10.20;99.90;;;;;;5031470;28;20072;-76
2021/04/12 02:50:34;;;;;;;2.00;1.13;;;10.20;99.90;;;;;;5040717;28;20073;-77
2021/04/12 02:53:26;;;;;;;1.35;1.20;;;10.30;99.90;;;;;;5035826;28;20105;-76
2021/04/12 02:56:24;;;;;;;2.13;1.40;;;10.20;99.90;;;;;;5000023;28;20105;-77
2021/04/12 02:59:05;;;;;;;2.55;1.20;;;10.20;99.90;;;;;;5038230;28;20088;-76
2021/04/12 03:01:36;;;;;;;1.60;1.50;;;10.20;99.90;;;;;;5030476;28;20543;-76
2021/04/12 03:04:35;;;;;;;1.48;1.38;;;10.30;99.90;;;;;;5031050;28;20084;-77
2021/04/12 03:07:20;;;;;;;2.47;2.00;;;10.30;99.90;;;;;;5011862;28;20090;-76
2021/04/12 03:10:04;;;;;;;;;;;10.00;99.90;;;;;;5041671;28;20078;-77
2021/04/12 03:12:45;;;;;;;1.80;1.70;;;10.20;99.90;;;;;;5044899;28;19992;-76
2021/04/12 03:15:48;;;;;;;2.05;1.80;;;10.20;99.90;;;;;;5029825;28;20112;-76
2021/04/12 03:18:25;;;;;;;2.85;2.00;;;10.30;99.90;;;;;;5037399;28;20072;-76
2021/04/12 03:21:18;;;;;;;2.35;2.08;;;10.20;99.90;;;;;;5031415;28;20521;-76
2021/04/12 03:24:08;;;;;;;2.92;1.85;;;10.20;99.90;;;;;;5019901;28;20085;-77
2021/04/12 03:26:39;;;;;;;2.55;2.10;;;10.30;99.90;;;;;;5032392;28;20066;-76
2021/04/12 03:29:09;;;;;;;2.47;2.17;;;10.40;99.90;;;;;;5014826;28;20093;-76
2021/04/12 03:31:45;;;;;;;2.38;2.17;;;10.30;99.90;;;;;;5036318;28;20559;-77
2021/04/12 03:34:32;;;;;;;2.72;2.53;;;10.40;99.90;;;;;;5037634;28;20124;-77
2021/04/12 03:37:30;;;;;;;2.80;2.50;;;10.40;99.90;;;;;;5040246;28;20563;-76
2021/04/12 03:40:02;;;;;;;2.50;2.30;;;10.40;99.90;;;;;;5007055;28;20608;-76
2021/04/12 03:42:51;;;;;;;4.32;2.50;;;10.20;99.90;;;;;;5020695;28;20086;-76
2021/04/12 03:45:39;;;;;;;2.97;2.70;;;10.20;99.90;;;;;;5036261;28;20085;-76
2021/04/12 03:48:32;;;;;;;3.35;2.90;;;10.20;99.90;;;;;;5033416;28;20207;-77
2021/04/12 03:51:39;;;;;;;4.47;2.97;;;10.10;99.90;;;;;;5046308;28;20535;-75
2021/04/12 03:54:49;;;;;;;3.83;3.50;;;10.40;99.90;;;;;;5016775;28;20139;-76
2021/04/12 03:57:43;;;;;;;3.70;3.30;;;10.40;99.90;;;;;;5031658;28;20069;-77
2021/04/12 04:00:39;;;;;;;4.00;3.47;;;10.30;99.90;;;;;;5051187;28;20080;-76
2021/04/12 04:03:33;;;;;;;3.83;3.50;;;10.20;99.90;;;;;;5036706;28;20093;-75
2021/04/12 04:06:20;;;;;;;3.90;3.50;;;10.30;99.90;;;;;;5051065;28;20116;-77
2021/04/12 04:08:46;;;;;;;4.50;4.10;;;10.40;99.90;;;;;;5016451;28;20074;-76
2021/04/12 04:11:39;;;;;;;4.35;3.60;;;10.30;99.90;;;;;;5036425;28;20496;-76
2021/04/12 04:14:33;;;;;;;3.95;3.65;;;10.30;99.90;;;;;;5045604;28;20657;-77
2021/04/12 04:17:33;;;;;;;4.78;4.28;;;10.20;99.90;;;;;;5047425;28;20471;-75
2021/04/12 04:20:34;;;;;;;3.95;3.58;;;10.10;99.90;;;;;;5023301;28;20088;-76
2021/04/12 04:23:44;;;;;;;4.65;4.15;;;10.00;99.90;;;;;;5025398;28;20101;-75
2021/04/12 04:26:31;;;;;;;3.85;3.40;;;9.90;99.90;;;;;;5037665;28;20692;-75
2021/04/12 04:29:18;;;;;;;3.95;3.42;;;10.00;99.90;;;;;;5033476;28;20127;-76
2021/04/12 04:32:23;;;;;;;3.80;3.40;;;10.10;99.90;;;;;;5038344;28;20144;-76
2021/04/12 04:35:26;;;;;;;7.07;3.92;;;10.00;99.90;;;;;;4967281;28;20113;-78
2021/04/12 04:38:06;;;;;;;4.60;4.10;;;10.00;99.90;;;;;;5017426;28;20100;-76
2021/04/12 04:40:49;;;;;;;4.45;3.92;;;10.00;99.90;;;;;;5032869;28;20550;-76
2021/04/12 04:43:39;;;;;;;4.60;4.20;;;10.10;99.90;;;;;;5022979;28;20082;-76
2021/04/12 04:46:33;;;;;;;3.70;3.40;;;10.00;99.90;;;;;;5045749;28;20540;-77
2021/04/12 04:49:26;;;;;;;4.22;3.83;;;9.90;99.90;;;;;;5026107;28;20428;-76
2021/04/12 04:52:29;;;;;;;4.70;3.97;;;9.80;99.90;;;;;;5028357;28;20795;-75
2021/04/12 04:55:23;;;;;;;5.40;4.70;;;9.60;99.90;;;;;;5047318;28;20093;-75
2021/04/12 04:57:58;;;;;;;4.38;3.97;;;9.60;99.90;;;;;;5042121;28;20077;-76
2021/04/12 05:00:42;;;;;;;4.90;4.45;;;9.60;99.90;;;;;;5031786;28;20076;-75
2021/04/12 05:03:28;;;;;;;5.82;4.88;;;9.50;99.90;;;;;;5046214;28;20138;-78
2021/04/12 05:06:17;;;;;;;4.50;4.10;;;9.40;99.90;;;;;;4971640;28;20620;-76
2021/04/12 05:09:04;;;;;;;4.20;3.72;;;9.30;99.90;;;;;;5047083;28;20544;-76
2021/04/12 05:11:48;;;;;;;3.10;2.53;;;9.20;99.90;;;;;;5043657;28;20193;-76
2021/04/12 05:14:51;;;;;;;3.17;2.67;;;9.20;99.90;;;;;;5036235;28;20074;-76
2021/04/12 05:17:19;;;;;;;4.53;3.40;;;9.10;99.90;;;;;;5014807;28;20085;-75
2021/04/12 05:20:06;;;;;;;5.28;4.25;;;8.90;99.90;;;;;;5045191;28;20152;-77
2021/04/12 05:22:47;;;;;;;5.80;4.72;;;8.90;99.90;;;;;;5037366;28;20098;-76
2021/04/12 05:25:21;;;;;;;4.35;3.30;;;8.80;99.90;;;;;;5014625;28;20173;-76
2021/04/12 05:28:08;;;;;;;4.28;3.65;;;8.80;99.90;;;;;;5038097;28;20073;-76
2021/04/12 05:31:14;;;;;;;3.90;3.55;;;8.80;99.90;;;;;;5043752;28;20097;-78
2021/04/12 05:33:49;;;;;;;5.47;4.75;;;8.70;99.90;;;;;;5033204;28;20094;-76
2021/04/12 05:36:45;;;;;;;9.00;7.13;;;8.80;99.90;;;;;;5030911;28;20089;-77
2021/04/12 05:39:23;;;;;;;6.75;5.88;;;8.60;99.90;;;;;;5020341;28;20105;-76
2021/04/12 05:42:07;;;;;;;4.85;4.35;;;8.50;99.90;;;;;;5047201;28;20096;-75
2021/04/12 05:45:13;;;;;;;4.88;4.22;;;8.40;99.90;;;;;;5040496;28;20073;-75
2021/04/12 05:48:23;;;;;;;3.15;2.85;;;8.20;99.90;;;;;;5042692;28;20109;-76
2021/04/12 05:51:22;;;;;;;3.13;2.80;;;8.00;99.90;;;;;;5029207;28;20073;-75
2021/04/12 05:54:06;;;;;;;4.05;2.80;;;7.90;99.90;;;;;;5039027;28;20092;-74
2021/04/12 05:57:08;;;;;;;2.85;2.30;;;7.90;99.90;;;;;;5036634;28;20097;-75
2021/04/12 05:59:55;;;;;;;3.22;2.70;;;7.80;99.90;;;;;;5036381;28;20099;-75
2021/04/12 06:02:24;;;;;;;3.70;3.03;;;7.70;99.90;;;;;;5044928;28;20093;-75
2021/04/12 06:05:04;;;;;;;4.00;3.60;;;7.60;99.90;;;;;;5039081;28;20098;-76
2021/04/12 06:07:44;;;;;;;3.08;2.78;;;7.60;99.90;;;;;;5037942;28;20443;-75
2021/04/12 06:10:13;;;;;;;2.95;2.72;;;7.50;99.90;;;;;;5040622;28;20073;-78
2021/04/12 06:12:57;;;;;;;2.70;2.50;;;7.30;99.90;;;;;;5030118;28;20120;-77
2021/04/12 06:15:59;;;;;;;2.03;1.87;;;7.10;99.90;;;;;;5023836;28;20235;-82
2021/04/12 06:18:55;;;;;;;2.30;1.70;;;7.00;99.90;;;;;;4989718;28;20325;-76
2021/04/12 06:21:47;;;;;;;1.52;1.42;;;6.80;99.90;;;;;;5033858;28;20201;-77
2021/04/12 06:24:21;;;;;;;1.73;1.48;;;6.60;99.90;;;;;;5017863;28;20078;-76
2021/04/12 06:27:09;;;;;;;1.83;1.73;;;6.60;99.90;;;;;;5049079;28;20076;-79
2021/04/12 06:29:45;;;;;;;2.10;1.80;;;6.30;99.90;;;;;;5042941;28;20545;-77
2021/04/12 06:32:28;;;;;;;1.67;1.58;;;6.10;99.90;;;;;;5039574;28;20094;-80
2021/04/12 06:35:30;;;;;;;1.27;1.17;;;6.00;99.90;;;;;;5056490;28;20132;-78
2021/04/12 06:38:20;;;;;;;1.58;1.27;;;5.90;99.90;;;;;;5054450;28;20073;-80
2021/04/12 06:40:48;;;;;;;1.20;1.10;;;6.10;99.90;;;;;;5054786;28;20598;-82
2021/04/12 06:43:39;;;;;;;1.40;1.20;;;6.00;99.90;;;;;;5022082;28;20561;-78
2021/04/12 06:46:43;;;;;;;2.33;0.85;;;5.80;99.90;;;;;;5046152;28;20085;-78
2021/04/12 06:49:23;;;;;;;1.40;1.05;;;5.70;99.90;;;;;;5042722;28;20084;-78
2021/04/12 06:52:41;;;;;;;2.05;1.17;;;5.60;99.90;;;;;;5047088;28;20606;-76
2021/04/12 06:55:23;;;;;;;2.35;1.30;;;5.40;99.90;;;;;;5041604;28;20471;-76
2021/04/12 06:58:19;;;;;;;0.60;0.50;;;5.30;99.90;;;;;;5028998;28;20147;-76
2021/04/12 07:01:03;;;;;;;0.90;0.57;;;5.30;99.90;;;;;;5047636;28;20131;-77
2021/04/12 07:03:53;;;;;;;0.75;0.50;;;5.30;99.90;;;;;;5043334;28;20550;-76
2021/04/12 07:06:47;;;;;;;0.57;0.57;;;5.20;99.90;;;;;;5023331;28;20082;-77
2021/04/12 07:09:18;;;;;;;0.82;0.73;;;5.20;99.90;;;;;;5045960;28;20101;-78
2021/04/12 07:12:14;;;;;;;0.60;0.60;;;5.20;99.90;;;;;;5016907;28;20927;-75
2021/04/12 07:15:22;;;;;;;1.05;0.40;;;5.10;99.90;;;;;;5021761;28;20101;-77
2021/04/12 07:18:07;;;;;;;0.77;0.60;;;5.30;99.90;;;;;;5045868;28;20097;-76
2021/04/12 07:21:00;;;;;;;0.60;0.50;;;5.20;99.90;;;;;;5035666;28;20459;-77
2021/04/12 07:24:04;;;;;;;0.68;0.60;;;5.20;99.90;;;;;;5043948;28;20571;-78
2021/04/12 07:27:00;;;;;;;1.58;0.60;;;4.90;99.90;;;;;;5048223;28;20775;-78
2021/04/12 07:29:56;;;;;;;0.50;0.45;;;5.00;99.90;;;;;;5043217;28;20082;-78
2021/04/12 07:33:00;;;;;;;0.50;0.50;;;4.80;99.90;;;;;;5034893;28;20523;-78
2021/04/12 07:35:44;;;;;;;0.50;0.50;;;5.00;99.90;;;;;;5041762;28;20174;-78
2021/04/12 07:38:52;;;;;;;2.55;0.47;;;5.00;99.90;;;;;;5021466;28;20613;-76
2021/04/12 07:41:51;;;;;;;0.77;0.50;;;4.90;99.90;;;;;;5041156;28;20089;-78
2021/04/12 07:44:36;;;;;;;0.68;0.60;;;4.90;99.90;;;;;;5031321;28;20084;-76
2021/04/12 07:47:31;;;;;;;0.97;0.70;;;4.80;99.90;;;;;;5039521;28;20120;-77
2021/04/12 07:50:02;;;;;;;1.38;0.60;;;4.60;99.90;;;;;;5042983;28;20331;-77
2021/04/12 07:52:58;;;;;;;0.50;0.50;;;4.70;99.90;;;;;;5025927;28;20101;-77
2021/04/12 07:55:23;;;;;;;0.73;0.40;;;4.70;99.90;;;;;;5040175;28;20120;-77
2021/04/12 07:58:16;;;;;;;1.23;1.13;;;4.60;99.90;;;;;;5036881;28;20109;-77
2021/04/12 08:01:14;;;;;;;1.08;0.90;;;4.40;99.90;;;;;;5045730;28;20077;-77
2021/04/12 08:04:18;;;;;;;1.70;1.40;;;4.40;99.90;;;;;;5019356;28;20088;-78
2021/04/12 08:07:09;;;;;;;1.23;1.00;;;4.40;99.90;;;;;;5032633;28;20157;-77
2021/04/12 08:09:50;;;;;;;1.13;0.82;;;4.40;99.90;;;;;;5044862;28;20095;-77
2021/04/12 08:12:36;;;;;;;0.70;0.50;;;4.50;99.90;;;;;;5038132;28;20440;-78
2021/04/12 08:15:05;;;;;;;0.77;0.60;;;4.30;99.90;;;;;;5035189;28;20185;-70
2021/04/12 08:17:47;;;;;;;1.10;0.45;;;4.50;99.90;;;;;;5039431;28;20077;-71
2021/04/12 08:20:28;;;;;;;0.80;0.73;;;4.50;99.90;;;;;;5032863;28;20080;-70
2021/04/12 08:23:31;;;;;;;0.60;0.60;;;4.20;99.90;;;;;;5027167;28;20100;-72
2021/04/12 08:26:16;;;;;;;0.65;0.57;;;4.40;99.90;;;;;;5030864;28;20150;-72
2021/04/12 08:28:44;;;;;;;0.82;0.68;;;4.30;99.90;;;;;;5032604;28;20151;-72
2021/04/12 08:31:10;;;;;;;0.68;0.57;;;4.40;99.90;;;;;;5035365;28;20121;-72
2021/04/12 08:34:19;;;;;;;0.40;0.40;;;4.20;99.90;;;;;;5030308;28;20101;-73
2021/04/12 08:36:59;;;;;;;0.80;0.60;;;4.50;99.90;;;;;;5033958;28;20078;-72
2021/04/12 08:39:43;;;;;;;1.10;0.60;;;4.40;99.90;;;;;;5029754;28;20255;-73
2021/04/12 08:42:46;;;;;;;0.82;0.55;;;4.40;99.90;;;;;;5027462;28;20455;-72
2021/04/12 08:45:42;;;;;;;0.60;0.60;;;4.50;99.90;;;;;;5037165;28;20211;-74
2021/04/12 08:48:20;;;;;;;1.02;0.70;;;4.50;99.90;;;;;;5030540;28;20088;-74
2021/04/12 08:51:22;;;;;;;0.75;0.63;;;4.40;99.90;;;;;;5041021;28;20108;-76
2021/04/12 08:54:06;;;;;;;0.80;0.80;;;4.40;99.90;;;;;;5032551;28;20143;-72
2021/04/12 08:56:41;;;;;;;0.80;0.80;;;4.50;99.90;;;;;;5030413;28;20160;-72
2021/04/12 08:59:41;;;;;;;1.05;0.68;;;4.60;99.90;;;;;;5031503;28;20486;-72
2021/04/12 09:02:32;;;;;;;0.80;0.80;;;4.40;99.90;;;;;;5047182;28;20146;-72
2021/04/12 09:05:32;;;;;;;0.55;0.52;;;4.50;99.90;;;;;;5039480;28;20093;-73
2021/04/12 09:08:23;;;;;;;1.48;1.38;;;4.50;99.90;;;;;;5036461;28;20106;-72
2021/04/12 09:11:12;;;;;;;1.08;0.80;;;4.20;99.90;;;;;;5033500;28;20104;-73
2021/04/12 09:14:02;;;;;;;1.23;0.70;;;4.30;99.90;;;;;;5046378;28;20088;-73
2021/04/12 09:16:42;;;;;;;0.95;0.95;;;4.70;99.90;;;;;;5019872;28;20073;-72
2021/04/12 09:19:26;;;;;;;1.17;1.05;;;4.70;99.90;;;;;;5030116;28;20168;-74
2021/04/12 09:22:29;;;;;;;1.25;0.90;;;4.60;99.90;;;;;;5015930;28;20201;-72
2021/04/12 09:25:16;;;;;;;1.20;1.10;;;4.60;99.90;;;;;;5030170;28;20130;-76
2021/04/12 09:27:59;;;;;;;0.98;0.88;;;4.80;99.90;;;;;;5031108;28;20559;-73
2021/04/12 09:30:57;;;;;;;0.70;0.70;;;4.70;99.90;;;;;;5033310;28;20225;-72
2021/04/12 09:33:41;;;;;;;0.93;0.90;;;4.80;99.90;;;;;;5010330;28;20090;-73
2021/04/12 09:36:11;;;;;;;1.60;1.20;;;4.80;99.90;;;;;;5040043;28;20130;-73
2021/04/12 09:38:55;;;;;;;1.30;1.20;;;4.80;99.90;;;;;;5020341;28;20081;-72
2021/04/12 09:41:58;;;;;;;1.50;1.25;;;4.80;99.90;;;;;;5033111;28;20128;-73
2021/04/12 09:44:26;;;;;;;1.50;1.30;;;4.80;99.90;;;;;;5031083;28;20081;-73
2021/04/12 09:47:10;;;;;;;1.63;1.30;;;4.80;99.90;;;;;;5032274;28;20473;-72
2021/04/12 09:50:17;;;;;;;1.65;1.50;;;4.80;99.90;;;;;;5041328;28;20573;-72
2021/04/12 09:52:58;;;;;;;1.25;1.15;;;4.90;99.90;;;;;;5028961;28;20631;-72
2021/04/12 09:56:05;;;;;;;1.08;0.98;;;4.90;99.90;;;;;;5034921;28;20093;-70
2021/04/12 09:58:57;;;;;;;2.15;1.45;;;4.80;99.90;;;;;;5012617;28;20172;-75
2021/04/12 10:01:41;;;;;;;1.90;1.67;;;4.90;99.90;;;;;;5046944;28;20177;-73
2021/04/12 10:04:15;;;;;;;1.30;1.20;;;4.90;99.90;;;;;;5040518;28;20081;-72
2021/04/12 10:06:49;;;;;;;1.48;1.30;;;4.80;99.90;;;;;;5027381;28;20101;-72
2021/04/12 10:09:59;;;;;;;1.20;1.10;;;4.80;99.90;;;;;;5028505;28;20540;-72
2021/04/12 10:12:31;;;;;;;2.58;1.23;;;4.90;99.90;;;;;;5014516;28;20132;-72
2021/04/12 10:15:06;;;;;;;1.33;1.23;;;5.00;99.90;;;;;;5036991;28;20122;-73
2021/04/12 10:18:04;;;;;;;2.00;1.50;;;5.00;99.90;;;;;;5034461;28;20164;-72
2021/04/12 10:20:39;;;;;;;1.67;1.23;;;5.10;99.90;;;;;;5011215;28;20093;-73
2021/04/12 10:23:22;;;;;;;1.63;1.50;;;5.00;99.90;;;;;;5031831;28;20093;-74
2021/04/12 10:26:07;;;;;;;1.70;1.30;;;5.00;99.90;;;;;;5028968;28;20526;-73
2021/04/12 10:28:49;;;;;;;1.55;1.45;;;4.90;99.90;;;;;;5013523;28;20647;-73
2021/04/12 10:31:34;;;;;;;2.33;1.80;;;4.80;99.90;;;;;;5046793;28;20148;-73
2021/04/12 10:34:07;;;;;;;6.97;3.47;;;4.70;99.90;;;;;;5033252;28;20080;-73
2021/04/12 10:37:05;;;;;;;1.60;1.50;;;4.90;99.90;;;;;;5034535;28;20110;-73
2021/04/12 10:39:31;;;;;;;2.28;1.50;;;5.00;99.90;;;;;;5028395;28;20077;-74
2021/04/12 10:42:07;;;;;;;3.67;2.35;;;5.00;99.90;;;;;;5029787;28;20100;-73
2021/04/12 10:44:59;;;;;;;2.03;1.90;;;5.10;99.90;;;;;;5031436;28;20100;-73
2021/04/12 10:47:54;;;;;;;2.97;1.80;;;5.00;99.90;;;;;;5030976;28;20124;-72
2021/04/12 10:50:19;;;;;;;4.35;3.08;;;5.10;99.90;;;;;;5038609;28;20125;-74
2021/04/12 10:53:07;;;;;;;5.00;3.53;;;5.10;99.90;;;;;;5036536;28;20066;-77
2021/04/12 10:55:47;;;;;;;1.95;1.75;;;5.20;99.90;;;;;;5028303;28;20554;-75
2021/04/12 10:58:29;;;;;;;2.35;1.67;;;5.20;99.90;;;;;;5039055;28;20559;-75
2021/04/12 11:01:11;;;;;;;2.72;1.75;;;5.10;99.90;;;;;;5038504;28;20562;-72
2021/04/12 11:03:51;;;;;;;1.98;1.70;;;5.10;99.90;;;;;;5046762;28;20532;-75
2021/04/12 11:06:43;;;;;;;3.13;1.77;;;5.20;99.90;;;;;;5029324;28;20118;-75
2021/04/12 11:09:30;;;;;;;2.47;2.13;;;5.20;99.90;;;;;;5034559;28;20074;-72
2021/04/12 11:12:20;;;;;;;3.08;2.38;;;5.30;99.90;;;;;;5032310;28;20097;-72
2021/04/12 11:14:52;;;;;;;2.10;1.90;;;5.20;99.90;;;;;;5036245;28;20085;-74
2021/04/12 11:17:41;;;;;;;3.10;2.72;;;5.10;99.90;;;;;;5036297;28;20104;-72
2021/04/12 11:20:29;;;;;;;2.25;2.05;;;5.10;99.90;;;;;;5030702;28;20112;-72
2021/04/12 11:23:00;;;;;;;2.70;2.13;;;5.10;99.90;;;;;;5031659;28;20174;-73
2021/04/12 11:26:00;;;;;;;3.38;2.30;;;5.20;99.90;;;;;;5029900;28;20198;-74
2021/04/12 11:28:46;;;;;;;3.53;2.58;;;5.20;99.90;;;;;;5026241;28;20191;-73
2021/04/12 11:31:33;;;;;;;2.58;2.35;;;5.10;99.90;;;;;;5026382;28;20126;-71
2021/04/12 11:34:22;;;;;;;3.72;2.28;;;4.90;99.90;;;;;;5025528;28;20078;-72
2021/04/12 11:36:51;;;;;;;2.03;1.83;;;4.90;99.90;;;;;;5004732;28;20188;-73
2021/04/12 11:39:28;;;;;;;2.72;2.10;;;4.80;99.90;;;;;;5036996;28;20114;-72
2021/04/12 11:41:58;;;;;;;2.60;2.13;;;4.70;99.90;;;;;;5026835;28;20448;-71
2021/04/12 11:44:35;;;;;;;2.07;1.87;;;4.60;99.90;;;;;;5027444;28;20065;-72
2021/04/12 11:47:18;;;;;;;2.10;1.90;;;4.80;99.90;;;;;;5035887;28;20294;-72
2021/04/12 11:50:09;;;;;;;2.85;2.40;;;4.80;99.90;;;;;;5045696;28;20144;-72
2021/04/12 11:52:46;;;;;;;3.70;2.47;;;4.70;99.90;;;;;;5037539;28;20089;-71
2021/04/12 11:55:23;;;;;;;2.15;1.90;;;4.60;99.90;;;;;;5048306;28;20065;-71
2021/04/12 11:58:06;;;;;;;3.03;2.08;;;4.80;99.90;;;;;;5025269;28;20160;-73
2021/04/12 12:00:55;;;;;;;3.00;2.42;;;4.80;99.90;;;;;;5037440;28;20120;-72
2021/04/12 12:04:02;;;;;;;3.33;2.22;;;4.90;99.90;;;;;;5036570;28;20481;-71
2021/04/12 12:06:44;;;;;;;2.35;2.15;;;5.00;99.90;;;;;;5062258;28;20100;-69
2021/04/12 12:09:28;;;;;;;3.58;2.50;;;4.90;99.90;;;;;;5036390;28;20216;-71
2021/04/12 12:12:24;;;;;;;2.25;2.05;;;5.00;99.90;;;;;;5030290;28;20563;-71
2021/04/12 12:15:02;;;;;;;3.30;1.98;;;5.00;99.90;;;;;;5012756;28;20092;-71
2021/04/12 12:17:38;;;;;;;2.60;2.20;;;5.00;99.90;;;;;;5034644;28;20511;-72
2021/04/12 12:20:10;;;;;;;2.65;2.10;;;4.80;99.90;;;;;;5041539;28;20084;-71
2021/04/12 12:23:10;;;;;;;6.32;2.88;;;4.80;99.90;;;;;;5038997;28;20089;-72
2021/04/12 12:25:44;;;;;;;2.88;2.50;;;4.80;99.90;;;;;;5036108;28;20124;-73
2021/04/12 12:28:22;;;;;;;2.35;2.08;;;4.50;99.90;;;;;;5040958;28;20122;-72
2021/04/12 12:30:52;;;;;;;3.10;1.58;;;4.50;99.90;;;;;;5030995;28;20070;-73
2021/04/12 12:33:36;;;;;;;2.67;2.30;;;4.70;99.90;;;;;;5030328;28;20427;-72
2021/04/12 12:36:28;;;;;;;2.78;2.38;;;4.90;99.90;;;;;;5041541;28;20080;-73
2021/04/12 12:39:36;;;;;;;5.03;3.95;;;4.90;99.90;;;;;;5033030;28;20074;-72
2021/04/12 12:42:25;;;;;;;3.22;2.63;;;5.00;99.90;;;;;;5017628;28;20112;-72
2021/04/12 12:44:54;;;;;;;2.83;2.30;;;4.80;99.90;;;;;;5033389;28;20085;-73
2021/04/12 12:47:24;;;;;;;3.70;3.00;;;4.80;99.90;;;;;;5046333;28;20169;-72
2021/04/12 12:50:03;;;;;;;75.40;11.63;;;5.00;99.90;;;;;;5029099;28;20084;-73
2021/04/12 12:52:38;;;;;;;5.38;3.30;;;5.10;99.90;;;;;;5033131;28;20096;-72
2021/04/12 12:55:20;;;;;;;3.72;2.50;;;4.90;99.90;;;;;;5041518;28;20085;-70
2021/04/12 12:57:47;;;;;;;5.55;3.45;;;4.80;99.90;;;;;;5038765;28;20088;-73
2021/04/12 13:00:41;;;;;;;2.75;2.50;;;5.00;99.90;;;;;;5026498;28;20761;-74
2021/04/12 13:03:18;;;;;;;2.50;2.28;;;4.80;99.90;;;;;;5035843;28;20577;-76
2021/04/12 13:05:45;;;;;;;3.50;2.55;;;4.80;99.90;;;;;;5032218;28;20100;-76
2021/04/12 13:08:34;;;;;;;2.97;2.38;;;4.90;99.90;;;;;;5040424;28;20157;-76
2021/04/12 13:11:00;;;;;;;2.85;2.42;;;4.90;99.90;;;;;;5033687;28;20090;-75
2021/04/12 13:13:35;;;;;;;3.13;2.83;;;5.00;99.90;;;;;;5044655;28;20085;-75
2021/04/12 13:16:15;;;;;;;5.43;2.70;;;5.10;99.90;;;;;;5038138;28;20082;-76
2021/04/12 13:18:43;;;;;;;2.55;2.13;;;5.20;99.90;;;;;;5046596;28;20077;-77
2021/04/12 13:21:20;;;;;;;3.17;2.42;;;4.90;99.90;;;;;;5022630;28;552268;-77
2021/04/12 13:23:46;;;;;;;3.40;2.75;;;5.00;99.90;;;;;;5034839;28;20081;-76
2021/04/12 13:26:37;;;;;;;3.03;2.42;;;5.00;99.90;;;;;;5039424;28;20147;-77
2021/04/12 13:29:14;;;;;;;3.85;2.80;;;4.90;99.90;;;;;;5034966;28;20093;-74
2021/04/12 13:31:50;;;;;;;3.40;2.50;;;5.10;99.90;;;;;;5030558;28;20543;-73
2021/04/12 13:34:30;;;;;;;3.65;2.63;;;5.20;99.90;;;;;;5032615;28;20091;-74
2021/04/12 13:37:18;;;;;;;3.47;2.10;;;5.10;99.90;;;;;;5036567;28;20599;-72
2021/04/12 13:39:51;;;;;;;2.75;2.55;;;5.10;99.90;;;;;;5037132;28;20089;-72
2021/04/12 13:42:27;;;;;;;3.17;2.88;;;5.30;99.90;;;;;;5030823;28;20086;-72
2021/04/12 13:45:00;;;;;;;2.55;2.15;;;5.10;99.90;;;;;;5029081;28;20570;-73
2021/04/12 13:47:47;;;;;;;2.80;2.45;;;4.80;99.90;;;;;;5039194;28;20074;-72
2021/04/12 13:50:33;;;;;;;3.75;3.33;;;4.90;99.90;;;;;;5039813;28;20081;-72
2021/04/12 13:53:27;;;;;;;2.83;2.25;;;5.00;99.90;;;;;;5034993;28;20089;-71
2021/04/12 13:55:59;;;;;;;3.83;2.45;;;5.00;99.90;;;;;;5011112;28;20121;-72
2021/04/12 13:58:30;;;;;;;2.28;2.08;;;4.90;99.90;;;;;;5035248;28;20399;-72
2021/04/12 14:01:01;;;;;;;2.58;2.38;;;5.00;99.90;;;;;;5032924;28;20104;-73
2021/04/12 14:03:49;;;;;;;3.05;2.60;;;5.00;99.90;;;;;;5039561;28;20086;-71
2021/04/12 14:06:27;;;;;;;4.28;2.55;;;5.20;99.90;;;;;;5028364;28;20120;-72
2021/04/12 14:08:56;;;;;;;4.25;3.10;;;5.10;99.90;;;;;;5024235;28;20076;-71
2021/04/12 14:11:28;;;;;;;3.38;3.03;;;5.10;99.90;;;;;;5028624;28;20521;-71
2021/04/12 14:14:05;;;;;;;3.17;2.63;;;4.90;99.90;;;;;;5029533;28;20106;-73
2021/04/12 14:16:35;;;;;;;3.13;2.83;;;4.70;99.90;;;;;;5048941;28;20081;-73
2021/04/12 14:19:22;;;;;;;3.95;2.88;;;4.80;99.90;;;;;;5035879;28;20085;-72
2021/04/12 14:21:49;;;;;;;3.17;2.72;;;4.70;99.90;;;;;;5029297;28;20203;-72
2021/04/12 14:24:31;;;;;;;3.13;2.30;;;4.90;99.90;;;;;;5028664;28;20547;-73
2021/04/12 14:27:14;;;;;;;3.38;2.25;;;4.80;99.90;;;;;;5028473;28;20587;-72
2021/04/12 14:30:05;;;;;;;3.33;2.90;;;4.80;99.90;;;;;;5027879;28;20104;-72
2021/04/12 14:32:39;;;;;;;3.05;2.75;;;4.60;99.90;;;;;;5031341;28;20136;-72